Rockdale, Massachusetts
Current Conditions -  °F | °C
As of 8:21 AM on Wednesday 22 Oct 2014 (Local Time) from KORH Reporting Station
Light Rain Light Rain  
Wind Chill: 42°   Ceiling: 200
Heat Index: 48°   Visibility: 2.5mi
Dew Point: 47°   Wind: 15mph
Humidity: 96%   Direction: 30°NNE
Pressure: 30"   Gusts: 26mph
Location:  42.1404°N, 71.6391°W
Report Text: KORH 221221Z 03013G23KT 2 1/2SM -RA BR OVC002 09/08 A3000 RMK AO2 P0001 T00890083
Loading
Personal Weather Stations






























Interactive Weather Map
Tropical Storm Tracking
New forecast layout! Learn more

10-Day Weather Forecast

Advertisements
Track Severe Weather on mobile